createdAt,value
2023-04-07T00:01:54.539Z,96958.50
2023-04-07T00:04:26.891Z,96955.53
2023-04-07T00:06:59.793Z,96960.91
2023-04-07T00:09:31.979Z,96954.78
2023-04-07T00:12:04.283Z,96956.06
2023-04-07T00:14:36.146Z,96950.63
2023-04-07T00:17:08.011Z,96947.44
2023-04-07T00:19:39.698Z,96942.97
2023-04-07T00:22:11.574Z,96945.84
2023-04-07T00:24:43.234Z,96942.78
2023-04-07T00:27:15.055Z,96942.03
2023-04-07T00:29:47.025Z,96938.06
2023-04-07T00:32:18.912Z,96932.50
2023-04-07T00:34:50.572Z,96921.72
2023-04-07T00:37:22.419Z,96914.03
2023-04-07T00:39:55.986Z,96907.72
2023-04-07T00:42:28.038Z,96902.25
2023-04-07T00:44:59.902Z,96902.06
2023-04-07T00:47:31.985Z,96902.25
2023-04-07T00:50:07.363Z,96892.50
2023-04-07T00:52:40.257Z,96893.38
2023-04-07T00:55:12.278Z,96890.34
2023-04-07T00:57:45.044Z,96882.31
2023-04-07T01:00:16.989Z,96882.19
2023-04-07T01:02:59.213Z,96873.00
2023-04-07T01:05:55.770Z,96880.09
2023-04-07T01:08:38.517Z,96873.41
2023-04-07T01:11:48.574Z,96874.81
2023-04-07T01:14:25.436Z,96874.28
2023-04-07T01:17:12.233Z,96862.13
2023-04-07T01:19:50.573Z,96857.63
2023-04-07T01:22:28.687Z,96852.38
2023-04-07T01:25:03.377Z,96856.09
2023-04-07T01:27:42.662Z,96855.59
2023-04-07T01:30:17.779Z,96863.22
2023-04-07T01:32:52.999Z,96856.97
2023-04-07T01:35:30.789Z,96859.75
2023-04-07T01:38:05.092Z,96855.97
2023-04-07T01:40:40.450Z,96855.88
2023-04-07T01:43:14.962Z,96851.13
2023-04-07T01:45:47.648Z,96845.09
2023-04-07T01:48:21.182Z,96832.91
2023-04-07T01:50:54.681Z,96832.09
2023-04-07T01:53:27.735Z,96834.97
2023-04-07T01:55:59.657Z,96830.94
2023-04-07T01:58:32.019Z,96822.09
2023-04-07T02:01:03.981Z,96822.19
2023-04-07T02:03:56.593Z,96810.09
2023-04-07T02:06:35.421Z,96808.91
2023-04-07T02:09:13.083Z,96808.19
2023-04-07T02:11:45.977Z,96805.75
2023-04-07T02:14:19.486Z,96809.19
2023-04-07T02:17:19.148Z,96800.16
2023-04-07T02:19:53.823Z,96787.91
2023-04-07T02:22:29.000Z,96783.56
2023-04-07T02:25:01.392Z,96782.06
2023-04-07T02:27:33.391Z,96773.72
2023-04-07T02:30:05.824Z,96775.91
2023-04-07T02:32:37.938Z,96776.09
2023-04-07T02:35:10.791Z,96775.13
2023-04-07T02:37:43.645Z,96764.84
2023-04-07T02:40:16.327Z,96763.63
2023-04-07T02:42:48.111Z,96767.81
2023-04-07T02:45:20.025Z,96759.94
2023-04-07T02:47:51.829Z,96757.06
2023-04-07T02:50:23.667Z,96746.22
2023-04-07T02:52:55.415Z,96741.66
2023-04-07T02:55:27.152Z,96739.81
2023-04-07T02:57:58.905Z,96746.25
2023-04-07T03:00:42.613Z,96742.06
2023-04-07T03:03:26.839Z,96733.00
2023-04-07T03:06:11.789Z,96730.03
2023-04-07T03:08:53.336Z,96736.91
2023-04-07T03:11:25.222Z,96728.94
2023-04-07T03:13:57.462Z,96722.00
2023-04-07T03:16:31.977Z,96724.53
2023-04-07T03:19:12.030Z,96723.00
2023-04-07T03:21:48.858Z,96724.16
2023-04-07T03:24:20.622Z,96720.59
2023-04-07T03:26:52.471Z,96729.09
2023-04-07T03:29:35.194Z,96724.09
2023-04-07T03:32:08.768Z,96722.00
2023-04-07T03:34:40.409Z,96712.28
2023-04-07T03:37:12.178Z,96707.41
2023-04-07T03:39:43.975Z,96693.28
2023-04-07T03:42:28.850Z,96693.06
2023-04-07T03:45:06.623Z,96683.19
2023-04-07T03:47:41.537Z,96686.75
2023-04-07T03:50:13.504Z,96689.59
2023-04-07T03:53:06.242Z,96676.63
2023-04-07T03:55:39.077Z,96671.28
2023-04-07T03:58:18.546Z,96669.06
2023-04-07T04:00:52.683Z,96654.41
2023-04-07T04:03:24.877Z,96649.66
2023-04-07T04:06:15.495Z,96653.19
2023-04-07T04:08:47.184Z,96651.09
2023-04-07T04:11:19.535Z,96657.03
2023-04-07T04:14:02.194Z,96661.16
2023-04-07T04:16:34.583Z,96658.72
2023-04-07T04:19:10.246Z,96666.94
2023-04-07T04:21:42.297Z,96671.03
2023-04-07T04:24:15.122Z,96662.91
2023-04-07T04:26:49.102Z,96680.38
2023-04-07T04:29:20.989Z,96694.53
2023-04-07T04:31:53.453Z,96689.88
2023-04-07T04:34:26.567Z,96691.66
2023-04-07T04:37:00.215Z,96696.75
2023-04-07T04:39:32.471Z,96703.63
2023-04-07T04:42:05.868Z,96700.81
2023-04-07T04:44:40.893Z,96705.00
2023-04-07T04:47:13.076Z,96713.31
2023-04-07T04:49:45.396Z,96711.63
2023-04-07T04:52:17.623Z,96711.00
2023-04-07T04:54:52.229Z,96708.41
2023-04-07T04:57:26.020Z,96713.84
2023-04-07T04:59:57.915Z,96706.06
2023-04-07T05:02:30.150Z,96716.31
2023-04-07T05:05:02.368Z,96725.38
2023-04-07T05:07:34.826Z,96721.16
2023-04-07T05:10:08.216Z,96728.47
2023-04-07T05:12:42.786Z,96734.03
2023-04-07T05:15:15.137Z,96734.91
2023-04-07T05:17:48.533Z,96725.97
2023-04-07T05:22:53.989Z,96729.84
2023-04-07T05:25:30.831Z,96735.06
2023-04-07T05:28:06.050Z,96751.13
2023-04-07T05:30:37.846Z,96746.16
2023-04-07T05:33:10.202Z,96749.09
2023-04-07T05:35:52.592Z,96751.81
2023-04-07T05:38:24.291Z,96750.53
2023-04-07T05:40:59.444Z,96734.38
2023-04-07T05:43:36.893Z,96719.69
2023-04-07T05:46:09.842Z,96713.56
2023-04-07T05:48:50.720Z,96725.44
2023-04-07T05:51:23.697Z,96728.78
2023-04-07T05:54:00.887Z,96731.38
2023-04-07T05:56:32.725Z,96729.50
2023-04-07T05:59:04.889Z,96736.25
2023-04-07T06:01:36.630Z,96734.41
2023-04-07T06:04:09.076Z,96732.56
2023-04-07T06:06:40.797Z,96741.44
2023-04-07T06:09:12.642Z,96739.47
2023-04-07T06:11:44.552Z,96742.84
2023-04-07T06:14:18.094Z,96745.97
2023-04-07T06:16:49.931Z,96753.13
2023-04-07T06:19:22.458Z,96758.81
2023-04-07T06:21:54.212Z,96780.22
2023-04-07T06:24:25.923Z,96767.84
2023-04-07T06:26:57.707Z,96775.97
2023-04-07T06:29:30.582Z,96781.38
2023-04-07T06:32:02.729Z,96789.56
2023-04-07T06:34:34.471Z,96790.69
2023-04-07T06:37:06.212Z,96792.00
2023-04-07T06:39:38.641Z,96797.00
2023-04-07T06:42:10.452Z,96802.31
2023-04-07T06:44:53.320Z,96802.16
2023-04-07T06:47:24.999Z,96804.84
2023-04-07T06:49:56.851Z,96801.31
2023-04-07T06:52:29.374Z,96806.94
2023-04-07T06:55:01.956Z,96802.59
2023-04-07T06:57:33.772Z,96803.66
2023-04-07T07:00:06.380Z,96804.13
2023-04-07T07:02:38.609Z,96809.59
2023-04-07T07:05:10.848Z,96812.97
2023-04-07T07:07:42.523Z,96815.63
2023-04-07T07:10:14.183Z,96816.63
2023-04-07T07:12:46.132Z,96814.72
2023-04-07T07:15:18.105Z,96815.69
2023-04-07T07:17:49.858Z,96826.34
2023-04-07T07:20:22.634Z,96834.72
2023-04-07T07:22:55.257Z,96827.97
2023-04-07T07:25:27.627Z,96828.44
2023-04-07T07:27:59.666Z,96824.81
2023-04-07T07:30:31.572Z,96831.84
2023-04-07T07:33:03.924Z,96829.72
2023-04-07T07:35:35.826Z,96829.03
2023-04-07T07:38:08.984Z,96834.13
2023-04-07T07:40:42.294Z,96835.03
2023-04-07T07:43:14.248Z,96828.13
2023-04-07T07:45:46.126Z,96829.97
2023-04-07T07:48:18.273Z,96842.63
2023-04-07T07:50:52.197Z,96845.19
2023-04-07T07:53:24.206Z,96838.47
2023-04-07T07:55:55.933Z,96840.66
2023-04-07T07:58:27.869Z,96844.94
2023-04-07T08:02:02.385Z,96837.19
2023-04-07T08:04:35.749Z,96846.97
2023-04-07T08:07:07.434Z,96848.72
2023-04-07T08:09:39.207Z,96852.56
2023-04-07T08:12:10.930Z,96850.75
2023-04-07T08:14:42.673Z,96853.22
2023-04-07T08:17:14.237Z,96855.69
2023-04-07T08:19:46.144Z,96851.25
2023-04-07T08:22:17.819Z,96856.94
2023-04-07T08:24:49.542Z,96865.69
2023-04-07T08:27:21.323Z,96873.03
2023-04-07T08:30:04.530Z,96880.94
2023-04-07T08:32:39.058Z,96879.53
2023-04-07T08:35:11.796Z,96877.91
2023-04-07T08:37:43.442Z,96886.59
2023-04-07T08:40:15.239Z,96884.59
2023-04-07T08:42:48.713Z,96879.78
2023-04-07T08:45:21.958Z,96878.06
2023-04-07T08:47:56.195Z,96893.50
2023-04-07T08:50:28.826Z,96885.84
2023-04-07T08:53:09.074Z,96888.25
2023-04-07T08:55:41.880Z,96901.41
2023-04-07T08:58:15.830Z,96898.06
2023-04-07T09:00:47.900Z,96898.56
2023-04-07T09:03:23.044Z,96898.38
2023-04-07T09:05:55.226Z,96896.50
2023-04-07T09:08:28.201Z,96891.66
2023-04-07T09:11:00.011Z,96890.03
2023-04-07T09:13:32.562Z,96897.94
2023-04-07T09:16:04.559Z,96896.81
2023-04-07T09:18:37.290Z,96895.84
2023-04-07T09:21:09.121Z,96903.22
2023-04-07T09:23:42.861Z,96903.13
2023-04-07T09:26:18.375Z,96896.69
2023-04-07T09:28:52.849Z,96899.16
2023-04-07T09:31:45.324Z,96901.34
2023-04-07T09:34:26.345Z,96911.59
2023-04-07T09:36:58.754Z,96911.78
2023-04-07T09:39:33.215Z,96916.47
2023-04-07T09:42:07.261Z,96915.34
2023-04-07T09:44:40.325Z,96912.22
2023-04-07T09:47:12.123Z,96906.59
2023-04-07T09:49:53.966Z,96911.88
2023-04-07T09:52:49.493Z,96904.44
2023-04-07T09:55:23.333Z,96911.31
2023-04-07T09:57:55.530Z,96906.94
2023-04-07T10:00:27.521Z,96902.91
2023-04-07T10:03:00.651Z,96901.19
2023-04-07T10:05:34.318Z,96904.41
2023-04-07T10:08:06.892Z,96904.88
2023-04-07T10:10:42.087Z,96906.34
2023-04-07T10:13:14.970Z,96903.91
2023-04-07T10:15:48.371Z,96906.06
2023-04-07T10:18:26.618Z,96911.41
2023-04-07T10:21:04.729Z,96912.72
2023-04-07T10:24:08.636Z,96916.41
2023-04-07T10:26:41.912Z,96909.69
2023-04-07T10:29:15.206Z,96907.66
2023-04-07T10:31:47.996Z,96908.59
2023-04-07T10:34:52.407Z,96906.50
2023-04-07T10:37:25.938Z,96898.03
2023-04-07T10:40:19.583Z,96898.63
2023-04-07T10:42:52.000Z,96895.88
2023-04-07T10:45:48.908Z,96896.06
2023-04-07T10:48:22.035Z,96897.78
2023-04-07T10:51:22.989Z,96885.94
2023-04-07T10:54:20.417Z,96893.56
2023-04-07T10:57:05.102Z,96893.69
2023-04-07T11:00:01.218Z,96896.22
2023-04-07T11:02:33.558Z,96896.09
2023-04-07T11:05:06.605Z,96890.06
2023-04-07T11:07:47.496Z,96885.13
2023-04-07T11:10:19.418Z,96888.66
2023-04-07T11:13:08.252Z,96887.66
2023-04-07T11:15:40.912Z,96883.19
2023-04-07T11:18:19.260Z,96883.28
2023-04-07T11:20:52.870Z,96891.75
2023-04-07T11:23:25.667Z,96886.25
2023-04-07T11:26:02.024Z,96888.75
2023-04-07T11:28:34.601Z,96890.34
2023-04-07T11:31:06.956Z,96894.91
2023-04-07T11:33:40.300Z,96893.53
2023-04-07T11:36:12.422Z,96895.81
2023-04-07T11:38:46.661Z,96891.72
2023-04-07T11:41:18.781Z,96893.53
2023-04-07T11:44:07.716Z,96885.69
2023-04-07T11:47:00.589Z,96891.25
2023-04-07T11:49:32.929Z,96888.97
2023-04-07T11:52:06.645Z,96891.09
2023-04-07T11:54:43.132Z,96894.09
2023-04-07T11:57:23.337Z,96882.16
2023-04-07T12:00:09.309Z,96886.88
2023-04-07T12:02:42.321Z,96883.34
2023-04-07T12:05:14.369Z,96878.44
2023-04-07T12:07:54.570Z,96884.34
2023-04-07T12:10:26.683Z,96880.53
2023-04-07T12:12:59.519Z,96874.91
2023-04-07T12:15:31.728Z,96880.72
2023-04-07T12:18:03.962Z,96878.97
2023-04-07T12:20:37.512Z,96874.78
2023-04-07T12:23:09.974Z,96868.75
2023-04-07T12:25:42.300Z,96872.59
2023-04-07T12:28:15.038Z,96873.00
2023-04-07T12:30:46.885Z,96872.81
2023-04-07T12:33:19.412Z,96874.50
2023-04-07T12:35:54.571Z,96885.63
2023-04-07T12:38:26.683Z,96877.28
2023-04-07T12:40:58.606Z,96873.69
2023-04-07T12:43:31.645Z,96873.63
2023-04-07T12:46:03.433Z,96874.81
2023-04-07T12:48:36.008Z,96876.09
2023-04-07T12:51:07.961Z,96877.91
2023-04-07T12:53:40.258Z,96879.25
2023-04-07T12:56:12.697Z,96880.34
2023-04-07T12:58:44.534Z,96881.44
2023-04-07T13:01:17.125Z,96880.31
2023-04-07T13:03:49.262Z,96874.13
2023-04-07T13:06:21.705Z,96873.94
2023-04-07T13:08:53.487Z,96868.72
2023-04-07T13:11:25.602Z,96862.88
2023-04-07T13:13:59.259Z,96864.75
2023-04-07T13:16:33.157Z,96864.97
2023-04-07T13:19:04.980Z,96859.91
2023-04-07T13:24:13.245Z,96867.38
2023-04-07T13:26:44.970Z,96864.00
2023-04-07T13:29:17.589Z,96870.13
2023-04-07T13:31:49.635Z,96871.06
2023-04-07T13:34:21.274Z,96859.44
2023-04-07T13:36:52.930Z,96857.75
2023-04-07T13:39:24.582Z,96861.16
2023-04-07T13:41:56.859Z,96853.31
2023-04-07T13:44:29.156Z,96858.28
2023-04-07T13:47:00.986Z,96855.28
2023-04-07T13:49:32.811Z,96865.88
2023-04-07T13:52:04.489Z,96861.91
2023-04-07T13:54:36.480Z,96853.13
2023-04-07T13:57:08.157Z,96854.16
2023-04-07T13:59:40.006Z,96843.28
2023-04-07T14:02:11.701Z,96843.84
2023-04-07T14:04:43.694Z,96839.94
2023-04-07T14:07:15.354Z,96848.22
2023-04-07T14:09:47.346Z,96839.84
2023-04-07T14:12:19.397Z,96829.38
2023-04-07T14:14:51.190Z,96824.78
2023-04-07T14:17:22.972Z,96824.56
2023-04-07T14:19:54.634Z,96827.25
2023-04-07T14:22:26.493Z,96828.56
2023-04-07T14:24:58.164Z,96828.53
2023-04-07T14:27:31.037Z,96835.28
2023-04-07T14:30:03.650Z,96829.47
2023-04-07T14:32:35.956Z,96826.47
2023-04-07T14:35:08.216Z,96834.28
2023-04-07T14:37:40.097Z,96829.34
2023-04-07T14:40:12.131Z,96838.72
2023-04-07T14:42:43.821Z,96830.88
2023-04-07T14:45:15.622Z,96830.91
2023-04-07T14:47:47.443Z,96831.06
2023-04-07T14:50:19.180Z,96826.31
2023-04-07T14:52:51.019Z,96826.19
2023-04-07T14:55:22.885Z,96828.94
2023-04-07T14:57:54.912Z,96832.28
2023-04-07T15:00:26.730Z,96825.53
2023-04-07T15:02:58.843Z,96826.59
2023-04-07T15:05:30.981Z,96829.34
2023-04-07T15:08:03.090Z,96828.91
2023-04-07T15:10:37.943Z,96831.81
2023-04-07T15:13:10.227Z,96839.88
2023-04-07T15:15:42.007Z,96837.31
2023-04-07T15:18:13.856Z,96831.91
2023-04-07T15:20:45.626Z,96840.75
2023-04-07T15:23:17.653Z,96835.50
2023-04-07T15:25:55.658Z,96848.72
2023-04-07T15:28:27.579Z,96849.47
2023-04-07T15:31:00.682Z,96837.53
2023-04-07T15:33:32.934Z,96832.75
2023-04-07T15:36:06.025Z,96832.97
2023-04-07T15:38:38.938Z,96838.88
2023-04-07T15:41:15.828Z,96835.78
2023-04-07T15:43:47.898Z,96842.03
2023-04-07T15:46:20.112Z,96853.91
2023-04-07T15:48:52.381Z,96855.38
2023-04-07T15:51:25.108Z,96842.81
2023-04-07T15:53:57.445Z,96850.09
2023-04-07T15:56:29.363Z,96857.75
2023-04-07T15:59:01.371Z,96857.34
2023-04-07T16:01:34.048Z,96863.03
2023-04-07T16:04:06.589Z,96863.22
2023-04-07T16:06:39.092Z,96868.06
2023-04-07T16:09:11.258Z,96871.53
2023-04-07T16:11:43.086Z,96862.19
2023-04-07T16:14:15.176Z,96877.38
2023-04-07T16:16:46.939Z,96871.81
2023-04-07T16:19:18.808Z,96875.50
2023-04-07T16:21:50.506Z,96880.66
2023-04-07T16:24:22.321Z,96876.66
2023-04-07T16:26:54.009Z,96887.88
2023-04-07T16:29:25.745Z,96882.50
2023-04-07T16:31:57.498Z,96897.50
2023-04-07T16:34:30.660Z,96887.41
2023-04-07T16:37:02.322Z,96892.03
2023-04-07T16:39:34.252Z,96904.56
2023-04-07T16:42:05.929Z,96903.53
2023-04-07T16:44:37.760Z,96896.00
2023-04-07T16:47:09.419Z,96905.81
2023-04-07T16:49:41.088Z,96915.69
2023-04-07T16:52:12.917Z,96912.66
2023-04-07T16:54:44.754Z,96921.72
2023-04-07T16:57:16.838Z,96924.16
2023-04-07T16:59:48.579Z,96925.09
2023-04-07T17:02:20.791Z,96931.03
2023-04-07T17:04:52.748Z,96931.28
2023-04-07T17:07:24.465Z,96942.19
2023-04-07T17:09:56.089Z,96950.09
2023-04-07T17:12:28.251Z,96949.28
2023-04-07T17:14:59.936Z,96960.56
2023-04-07T17:17:31.663Z,96959.59
2023-04-07T17:20:03.611Z,96961.38
2023-04-07T17:22:35.594Z,96963.16
2023-04-07T17:25:07.819Z,96982.22
2023-04-07T17:27:39.743Z,96977.13
2023-04-07T17:30:11.935Z,96982.56
2023-04-07T17:32:43.803Z,96981.41
2023-04-07T17:35:15.598Z,96986.00
2023-04-07T17:37:47.410Z,96980.53
2023-04-07T17:40:19.294Z,96986.31
2023-04-07T17:42:52.094Z,96982.28
2023-04-07T17:45:24.726Z,96986.03
2023-04-07T17:47:56.592Z,96977.34
2023-04-07T17:50:28.498Z,96977.28
2023-04-07T17:53:00.381Z,96977.03
2023-04-07T17:55:32.356Z,96973.06
2023-04-07T17:58:04.082Z,96984.06
2023-04-07T18:00:35.963Z,96984.31
2023-04-07T18:03:09.734Z,96979.81
2023-04-07T18:05:47.516Z,96974.88
2023-04-07T18:08:20.028Z,96986.41
2023-04-07T18:10:53.049Z,96990.28
2023-04-07T18:13:24.975Z,96986.22
2023-04-07T18:15:57.035Z,96979.44
2023-04-07T18:18:29.431Z,96982.16
2023-04-07T18:21:07.913Z,96982.81
2023-04-07T18:23:42.156Z,96987.00
2023-04-07T18:26:14.410Z,96985.41
2023-04-07T18:28:46.124Z,96992.34
2023-04-07T18:31:19.032Z,96990.78
2023-04-07T18:33:51.723Z,96996.03
2023-04-07T18:36:24.369Z,96993.25
2023-04-07T18:38:56.539Z,97001.31
2023-04-07T18:41:29.122Z,97002.84
2023-04-07T18:44:02.513Z,97000.22
2023-04-07T18:46:34.798Z,96999.63
2023-04-07T18:49:07.980Z,97007.88
2023-04-07T18:51:43.679Z,97004.59
2023-04-07T18:54:16.443Z,97003.69
2023-04-07T18:56:48.154Z,97014.19
2023-04-07T18:59:19.827Z,97011.88
2023-04-07T19:01:52.326Z,97009.09
2023-04-07T19:04:24.166Z,97019.47
2023-04-07T19:06:56.083Z,97017.31
2023-04-07T19:09:28.058Z,97023.84
2023-04-07T19:12:00.184Z,97037.84
2023-04-07T19:14:32.350Z,97037.94
2023-04-07T19:17:04.179Z,97044.59
2023-04-07T19:19:35.952Z,97047.88
2023-04-07T19:22:07.680Z,97049.53
2023-04-07T19:24:39.473Z,97041.16
2023-04-07T19:27:11.317Z,97044.75
2023-04-07T19:29:43.026Z,97051.41
2023-04-07T19:32:14.946Z,97057.59
2023-04-07T19:34:46.646Z,97057.38
2023-04-07T19:37:18.408Z,97062.38
2023-04-07T19:40:01.708Z,97064.13
2023-04-07T19:42:35.945Z,97068.03
2023-04-07T19:45:09.105Z,97065.28
2023-04-07T19:47:41.683Z,97065.53
2023-04-07T19:50:13.590Z,97062.38
2023-04-07T19:52:45.566Z,97064.81
2023-04-07T19:55:18.091Z,97072.03
2023-04-07T19:57:50.249Z,97071.00
2023-04-07T20:00:22.214Z,97073.94
2023-04-07T20:02:54.404Z,97074.72
2023-04-07T20:05:26.219Z,97079.53
2023-04-07T20:07:58.936Z,97079.75
2023-04-07T20:10:31.522Z,97077.91
2023-04-07T20:13:05.189Z,97083.16
2023-04-07T20:15:40.821Z,97075.31
2023-04-07T20:18:13.063Z,97076.69
2023-04-07T20:20:45.911Z,97078.81
2023-04-07T20:23:18.169Z,97070.72
2023-04-07T20:25:51.011Z,97081.09
2023-04-07T20:28:25.106Z,97074.78
2023-04-07T20:30:57.060Z,97076.31
2023-04-07T20:33:29.524Z,97066.41
2023-04-07T20:36:01.408Z,97075.59
2023-04-07T20:38:33.313Z,97075.63
2023-04-07T20:41:05.071Z,97084.06
2023-04-07T20:43:37.094Z,97089.94
2023-04-07T20:46:09.111Z,97083.09
2023-04-07T20:48:40.875Z,97083.19
2023-04-07T20:51:13.178Z,97087.00
2023-04-07T20:53:44.950Z,97084.19
2023-04-07T20:56:17.088Z,97084.16
2023-04-07T20:58:48.979Z,97091.22
2023-04-07T21:01:21.697Z,97088.09
2023-04-07T21:03:53.999Z,97089.03
2023-04-07T21:06:26.095Z,97093.69
2023-04-07T21:08:58.011Z,97095.38
2023-04-07T21:11:36.533Z,97099.25
2023-04-07T21:14:08.474Z,97095.09
2023-04-07T21:16:40.573Z,97090.94
2023-04-07T21:19:17.566Z,97088.59
2023-04-07T21:21:53.553Z,97089.06
2023-04-07T21:24:25.552Z,97085.72
2023-04-07T21:26:57.864Z,97086.00
2023-04-07T21:29:30.367Z,97088.19
2023-04-07T21:32:02.502Z,97090.28
2023-04-07T21:34:34.577Z,97087.56
2023-04-07T21:37:07.665Z,97093.25
2023-04-07T21:39:39.381Z,97088.88
2023-04-07T21:42:11.034Z,97085.41
2023-04-07T21:44:42.733Z,97083.69
2023-04-07T21:47:14.537Z,97093.19
2023-04-07T21:49:46.362Z,97094.50
2023-04-07T21:52:18.090Z,97083.09
2023-04-07T21:54:49.699Z,97085.00
2023-04-07T21:57:21.386Z,97082.59
2023-04-07T21:59:53.095Z,97087.22
2023-04-07T22:02:24.940Z,97079.53
2023-04-07T22:04:56.815Z,97085.31
2023-04-07T22:07:28.846Z,97083.41
2023-04-07T22:10:00.595Z,97080.91
2023-04-07T22:12:32.393Z,97079.97
2023-04-07T22:15:04.517Z,97068.63
2023-04-07T22:17:36.752Z,97084.06
2023-04-07T22:20:10.865Z,97078.91
2023-04-07T22:22:42.584Z,97087.81
2023-04-07T22:25:14.295Z,97091.28
2023-04-07T22:27:46.038Z,97081.28
2023-04-07T22:30:18.715Z,97086.25
2023-04-07T22:32:50.924Z,97078.19
2023-04-07T22:35:22.639Z,97082.34
2023-04-07T22:37:54.425Z,97080.25
2023-04-07T22:40:26.204Z,97073.25
2023-04-07T22:42:58.801Z,97077.84
2023-04-07T22:45:30.625Z,97077.06
2023-04-07T22:48:02.717Z,97070.78
2023-04-07T22:50:37.692Z,97080.94
2023-04-07T22:53:09.678Z,97085.06
2023-04-07T22:55:41.550Z,97072.78
2023-04-07T22:58:13.521Z,97074.13
2023-04-07T23:00:45.369Z,97079.94
2023-04-07T23:03:17.862Z,97078.78
2023-04-07T23:05:49.655Z,97080.16
2023-04-07T23:08:21.652Z,97077.75
2023-04-07T23:10:53.560Z,97078.09
2023-04-07T23:13:26.421Z,97084.28
2023-04-07T23:15:58.408Z,97082.22
2023-04-07T23:18:31.754Z,97086.22
2023-04-07T23:21:03.909Z,97091.53
2023-04-07T23:23:36.232Z,97085.38
2023-04-07T23:26:08.173Z,97080.31
2023-04-07T23:28:41.191Z,97084.03
2023-04-07T23:31:13.651Z,97091.69
2023-04-07T23:33:45.498Z,97085.59
2023-04-07T23:36:17.631Z,97091.38
2023-04-07T23:38:50.751Z,97087.69
2023-04-07T23:41:23.275Z,97094.09
2023-04-07T23:43:55.181Z,97100.94
2023-04-07T23:46:28.140Z,97090.63
2023-04-07T23:49:00.818Z,97096.19
2023-04-07T23:51:33.403Z,97094.03
2023-04-07T23:54:05.049Z,97083.78
2023-04-07T23:56:37.193Z,97089.91
2023-04-07T23:59:09.156Z,97092.56
